Time;durP1;ratioP1;P1;durP2;ratioP2;P2;SDS_P1;SDS_P2;PMS_P1;PMS_P2;Temp;Humidity;BMP_temperature;BMP_pressure;BME280_temperature;BME280_humidity;BME280_pressure;Samples;Min_cycle;Max_cycle;Signal;HPM_P1;HPM_P2
2023/10/03 00:00:15;;;;;;;26.92;5.43;;;;;;;17.79;47.32;101643.03;5052636;28;20083;-77
2023/10/03 00:02:41;;;;;;;12.40;4.60;;;;;;;17.50;47.62;101597.78;5052344;28;20036;-77
2023/10/03 00:05:08;;;;;;;16.27;4.55;;;;;;;17.64;47.78;101636.34;5052439;28;20033;-77
2023/10/03 00:07:33;;;;;;;12.50;4.90;;;;;;;17.59;47.57;101643.19;5052624;28;20566;-75
2023/10/03 00:09:59;;;;;;;15.43;4.88;;;;;;;17.55;47.86;101633.63;5016708;28;20045;-76
2023/10/03 00:12:24;;;;;;;19.15;5.07;;;;;;;17.42;48.10;101631.16;5052301;28;20025;-76
2023/10/03 00:14:50;;;;;;;20.13;5.32;;;;;;;17.45;48.16;101635.44;5052337;28;20029;-76
2023/10/03 00:17:16;;;;;;;20.23;4.78;;;;;;;17.38;48.20;101635.16;5052066;28;20078;-77
2023/10/03 00:19:41;;;;;;;18.80;4.38;;;;;;;17.27;48.51;101636.19;5051769;28;20040;-77
2023/10/03 00:22:07;;;;;;;24.58;6.03;;;;;;;17.13;48.44;101614.84;5052092;28;20025;-78
2023/10/03 00:24:32;;;;;;;17.33;4.85;;;;;;;16.95;48.71;101594.81;5052165;28;20040;-77
2023/10/03 00:26:59;;;;;;;23.67;6.03;;;;;;;17.15;48.87;101639.19;5052218;28;20029;-77
2023/10/03 00:29:29;;;;;;;20.83;5.03;;;;;;;17.14;48.84;101637.47;5052027;28;20056;-76
2023/10/03 00:31:58;;;;;;;18.48;5.25;;;;;;;16.85;48.69;101591.22;5051924;28;20055;-76
2023/10/03 00:34:23;;;;;;;16.88;5.15;;;;;;;17.14;48.78;101634.75;5051804;28;20075;-76
2023/10/03 00:36:50;;;;;;;11.82;5.28;;;;;;;17.11;48.91;101640.47;5052246;28;20449;-78
2023/10/03 00:39:15;;;;;;;20.88;5.00;;;;;;;17.01;48.81;101616.00;5051883;28;20033;-77
2023/10/03 00:41:40;;;;;;;14.82;4.97;;;;;;;17.04;49.08;101625.72;5051947;28;20044;-75
2023/10/03 00:44:06;;;;;;;24.23;5.20;;;;;;;16.88;49.11;101604.53;5050146;28;20080;-75
2023/10/03 00:46:32;;;;;;;9.25;4.50;;;;;;;17.00;49.06;101627.84;5051603;28;20123;-76
2023/10/03 00:49:05;;;;;;;21.33;5.15;;;;;;;16.99;49.18;101612.56;5051055;28;20158;-76
2023/10/03 00:51:31;;;;;;;14.02;4.95;;;;;;;16.72;49.28;101566.22;5051099;28;20122;-77
2023/10/03 00:53:59;;;;;;;15.80;4.82;;;;;;;17.07;49.08;101626.28;5051210;28;20033;-76
2023/10/03 00:56:24;;;;;;;17.90;5.45;;;;;;;17.11;48.84;101632.31;5050987;28;20401;-76
2023/10/03 00:58:51;;;;;;;16.20;5.20;;;;;;;17.02;49.03;101623.16;5051516;28;20029;-77
2023/10/03 01:01:18;;;;;;;17.75;4.95;;;;;;;17.05;49.18;101643.75;5051541;28;20202;-76
2023/10/03 01:03:47;;;;;;;13.48;5.28;;;;;;;16.94;49.12;101620.25;5051990;28;20028;-76
2023/10/03 01:06:13;;;;;;;18.63;4.32;;;;;;;16.97;49.11;101630.84;4999503;28;20601;-77
2023/10/03 01:08:41;;;;;;;13.75;5.20;;;;;;;16.93;49.27;101634.88;4999921;28;20037;-77
2023/10/03 01:11:15;;;;;;;21.92;5.05;;;;;;;16.82;49.64;101632.28;5050832;28;20033;-76
2023/10/03 01:13:41;;;;;;;13.57;4.38;;;;;;;16.81;49.47;101626.00;5051488;28;20024;-77
2023/10/03 01:16:06;;;;;;;10.18;4.25;;;;;;;16.77;49.39;101620.97;5051251;28;20504;-77
2023/10/03 01:18:37;;;;;;;13.43;4.55;;;;;;;16.85;49.47;101632.84;5051337;28;20025;-75
2023/10/03 01:21:05;;;;;;;16.38;6.25;;;;;;;16.89;49.49;101638.88;5050803;28;20029;-77
2023/10/03 01:23:34;;;;;;;16.55;5.25;;;;;;;16.86;49.70;101639.16;5050906;28;20040;-76
2023/10/03 01:26:00;;;;;;;12.38;4.65;;;;;;;16.65;49.41;101608.50;5049459;28;20394;-77
2023/10/03 01:28:26;;;;;;;15.25;4.53;;;;;;;16.86;49.69;101644.59;5050951;28;20027;-76
2023/10/03 01:30:52;;;;;;;9.18;4.63;;;;;;;16.80;49.84;101646.00;5051331;28;20029;-78
2023/10/03 01:33:17;;;;;;;14.40;5.50;;;;;;;16.66;49.55;101627.41;5050809;28;20100;-76
2023/10/03 01:35:42;;;;;;;15.23;4.70;;;;;;;16.70;49.65;101631.53;5050903;28;20039;-76
2023/10/03 01:38:08;;;;;;;17.92;4.63;;;;;;;16.73;49.74;101643.97;5050613;28;20108;-76
2023/10/03 01:40:34;;;;;;;14.85;4.25;;;;;;;16.75;49.91;101642.88;5050940;28;20370;-77
2023/10/03 01:43:00;;;;;;;22.33;5.45;;;;;;;16.63;49.55;101611.38;5050976;28;20056;-77
2023/10/03 01:45:27;;;;;;;27.80;5.13;;;;;;;16.63;49.61;101611.38;5051307;28;20040;-76
2023/10/03 01:47:54;;;;;;;9.85;4.82;;;;;;;16.81;49.84;101636.88;5051277;28;20028;-77
2023/10/03 01:50:21;;;;;;;12.68;5.10;;;;;;;16.85;49.51;101637.41;5050630;28;20083;-76
2023/10/03 01:52:48;;;;;;;14.13;4.60;;;;;;;16.84;49.36;101636.59;5050598;28;20057;-78
2023/10/03 01:55:18;;;;;;;25.30;6.20;;;;;;;16.84;49.58;101635.72;5050470;28;20143;-76
2023/10/03 01:57:44;;;;;;;17.17;5.53;;;;;;;16.83;49.69;101639.44;5050218;28;20033;-77
2023/10/03 02:00:28;;;;;;;14.07;4.35;;;;;;;16.75;49.49;101632.00;5050484;28;20056;-77
2023/10/03 02:03:04;;;;;;;14.23;4.95;;;;;;;16.78;49.96;101630.84;5050310;28;20037;-76
2023/10/03 02:05:30;;;;;;;22.60;5.55;;;;;;;16.68;49.64;101625.41;5050267;28;20035;-76
2023/10/03 02:07:57;;;;;;;13.07;4.63;;;;;;;16.65;49.76;101613.94;4998574;28;20493;-76
2023/10/03 02:10:22;;;;;;;15.25;4.65;;;;;;;16.69;50.06;101621.69;5050485;28;20032;-76
2023/10/03 02:12:51;;;;;;;21.98;5.15;;;;;;;16.71;49.71;101618.81;5050386;28;20463;-75
2023/10/03 02:15:28;;;;;;;23.55;5.30;;;;;;;16.72;50.08;101626.84;5050223;28;20412;-76
2023/10/03 02:17:56;;;;;;;13.90;4.57;;;;;;;16.72;49.86;101626.84;5050138;28;20044;-77
2023/10/03 02:20:25;;;;;;;8.35;4.10;;;;;;;16.50;50.16;101583.59;5031840;28;20033;-76
2023/10/03 02:22:54;;;;;;;13.20;4.70;;;;;;;16.69;50.23;101631.69;5048691;28;20068;-75
2023/10/03 02:25:25;;;;;;;14.75;4.72;;;;;;;16.46;50.25;101578.56;5050110;28;20057;-77
2023/10/03 02:27:53;;;;;;;19.15;4.90;;;;;;;16.62;49.74;101614.22;5050044;28;20485;-76
2023/10/03 02:30:28;;;;;;;12.82;5.22;;;;;;;16.69;50.22;101620.81;5058444;28;20016;-77
2023/10/03 02:32:57;;;;;;;13.18;4.63;;;;;;;16.45;50.28;101585.00;5075944;28;20025;-77
2023/10/03 02:35:24;;;;;;;25.45;5.40;;;;;;;16.64;50.26;101617.66;5076032;28;20048;-77
2023/10/03 02:37:57;;;;;;;36.67;6.55;;;;;;;16.67;50.12;101626.38;5075878;28;20025;-79
2023/10/03 02:40:27;;;;;;;28.05;5.93;;;;;;;16.67;49.97;101629.09;5064028;28;20025;-77
2023/10/03 02:42:54;;;;;;;20.83;6.60;;;;;;;16.68;50.31;101627.25;5051308;28;20049;-77
2023/10/03 02:45:23;;;;;;;14.52;5.78;;;;;;;16.69;50.24;101627.13;5050430;28;20049;-76
2023/10/03 02:47:56;;;;;;;15.05;4.60;;;;;;;16.73;50.33;101622.25;5033727;28;20063;-77
2023/10/03 02:50:26;;;;;;;17.45;5.68;;;;;;;16.77;50.06;101635.41;5050695;28;20025;-76
2023/10/03 02:52:53;;;;;;;21.35;5.15;;;;;;;16.65;50.08;101603.09;5050260;28;20028;-77
2023/10/03 02:55:19;;;;;;;18.48;5.47;;;;;;;16.72;50.04;101621.41;5049304;28;20036;-76
2023/10/03 02:57:45;;;;;;;15.45;6.47;;;;;;;16.71;50.19;101621.53;5049665;28;20029;-78
2023/10/03 03:00:13;;;;;;;16.52;5.35;;;;;;;16.79;50.06;101633.41;5049223;28;20028;-77
2023/10/03 03:02:46;;;;;;;16.25;5.03;;;;;;;16.60;50.43;101600.81;5049458;28;20174;-77
2023/10/03 03:05:15;;;;;;;19.60;4.63;;;;;;;16.76;50.32;101630.09;5049611;28;20033;-77
2023/10/03 03:07:42;;;;;;;20.90;6.05;;;;;;;16.69;50.22;101610.81;5049350;28;20049;-76
2023/10/03 03:10:08;;;;;;;26.08;5.63;;;;;;;16.89;50.17;101633.44;5049282;28;20501;-77
2023/10/03 03:12:37;;;;;;;15.70;5.30;;;;;;;16.87;50.10;101638.16;5049036;28;20029;-77
2023/10/03 03:15:05;;;;;;;21.08;6.40;;;;;;;16.84;49.74;101638.44;5049295;28;20035;-77
2023/10/03 03:17:31;;;;;;;11.77;4.90;;;;;;;16.66;50.08;101610.25;5049767;28;20565;-76
2023/10/03 03:19:56;;;;;;;22.33;5.53;;;;;;;16.72;49.83;101623.25;5014204;28;20070;-77
2023/10/03 03:22:23;;;;;;;19.08;4.70;;;;;;;16.76;50.10;101640.97;5049329;28;20029;-77
2023/10/03 03:24:51;;;;;;;12.30;4.93;;;;;;;16.74;50.02;101640.28;5048995;28;20037;-77
2023/10/03 03:27:18;;;;;;;14.95;5.03;;;;;;;16.63;50.05;101619.53;5049142;28;20082;-78
2023/10/03 03:32:28;;;;;;;17.10;4.75;;;;;;;16.48;50.43;101610.00;5049313;28;20143;-78
2023/10/03 03:34:53;;;;;;;23.65;6.90;;;;;;;16.65;50.14;101638.38;5034567;28;20060;-77
2023/10/03 03:37:22;;;;;;;18.20;5.78;;;;;;;16.49;50.41;101619.88;5052951;28;20477;-77
2023/10/03 03:39:55;;;;;;;17.55;5.60;;;;;;;16.60;50.48;101640.69;5034257;28;20082;-78
2023/10/03 03:42:25;;;;;;;17.23;5.20;;;;;;;16.58;50.54;101638.09;5052858;28;20036;-77
2023/10/03 03:44:50;;;;;;;12.98;6.03;;;;;;;16.59;50.40;101641.66;5052453;28;20106;-77
2023/10/03 03:47:18;;;;;;;13.23;5.60;;;;;;;16.38;50.28;101605.56;5052558;28;20424;-77
2023/10/03 03:49:44;;;;;;;11.75;4.63;;;;;;;16.49;50.53;101635.31;5052671;28;20067;-77
2023/10/03 03:52:12;;;;;;;17.42;4.88;;;;;;;16.53;50.84;101643.06;5034659;28;20025;-79
2023/10/03 03:54:39;;;;;;;27.52;6.68;;;;;;;16.54;50.58;101643.91;5052362;28;20370;-78
2023/10/03 03:57:06;;;;;;;20.88;6.68;;;;;;;16.53;50.38;101642.19;5052537;28;20025;-77
2023/10/03 03:59:32;;;;;;;23.08;6.28;;;;;;;16.25;50.88;101606.66;5052539;28;20500;-77
2023/10/03 04:02:00;;;;;;;18.77;6.00;;;;;;;16.45;50.74;101633.88;5053111;28;20465;-78
2023/10/03 04:04:25;;;;;;;30.02;6.72;;;;;;;16.48;50.52;101637.16;5053719;28;20033;-78
2023/10/03 04:06:52;;;;;;;20.75;8.48;;;;;;;16.45;50.74;101633.88;5053489;28;20468;-76
2023/10/03 04:09:18;;;;;;;22.48;5.85;;;;;;;16.48;50.65;101634.44;5054588;28;20033;-77
2023/10/03 04:11:43;;;;;;;17.85;4.97;;;;;;;16.47;50.46;101648.16;5054386;28;20029;-78
2023/10/03 04:14:09;;;;;;;26.77;7.00;;;;;;;16.46;50.51;101630.16;5054191;28;20036;-78
2023/10/03 04:16:39;;;;;;;19.40;5.45;;;;;;;16.53;50.70;101642.19;5055933;28;20745;-77
2023/10/03 04:19:06;;;;;;;30.75;9.00;;;;;;;16.54;50.74;101642.09;5062815;28;20033;-78
2023/10/03 04:21:32;;;;;;;27.75;5.75;;;;;;;16.40;50.67;101618.00;5064099;28;20025;-77
2023/10/03 04:23:59;;;;;;;28.73;6.40;;;;;;;16.59;50.50;101638.94;5062667;28;20084;-77
2023/10/03 04:26:25;;;;;;;39.53;7.20;;;;;;;16.55;50.62;101642.94;5011146;28;20045;-77
2023/10/03 04:28:51;;;;;;;32.80;7.32;;;;;;;16.55;50.45;101645.66;5056544;28;20115;-78
2023/10/03 04:31:16;;;;;;;27.70;7.53;;;;;;;16.37;50.78;101634.56;5052891;28;20036;-77
2023/10/03 04:33:45;;;;;;;19.55;6.32;;;;;;;16.39;50.66;101620.84;5051888;28;20048;-77
2023/10/03 04:36:11;;;;;;;12.63;5.75;;;;;;;16.55;50.89;101651.06;5051560;28;20025;-76
2023/10/03 04:38:37;;;;;;;45.00;6.93;;;;;;;16.51;50.67;101660.50;5051830;28;20060;-76
2023/10/03 04:41:02;;;;;;;23.88;6.05;;;;;;;16.47;50.74;101653.59;5032571;28;20125;-77
2023/10/03 04:43:30;;;;;;;31.25;7.40;;;;;;;16.52;50.93;101662.19;5051194;28;20071;-77
2023/10/03 04:45:56;;;;;;;22.13;6.55;;;;;;;16.42;50.87;101643.13;5050094;28;20048;-77
2023/10/03 04:48:22;;;;;;;18.85;6.07;;;;;;;16.53;50.85;101663.91;5051000;28;20504;-77
2023/10/03 04:50:48;;;;;;;32.60;7.22;;;;;;;16.54;50.82;101668.34;5051286;28;20661;-77
2023/10/03 04:53:16;;;;;;;25.45;6.53;;;;;;;16.56;50.63;101669.09;5051343;28;20115;-77
2023/10/03 04:55:47;;;;;;;31.83;6.32;;;;;;;16.41;50.87;101637.88;5051117;28;20025;-77
2023/10/03 04:58:12;;;;;;;28.70;6.60;;;;;;;16.50;50.58;101664.19;5051294;28;20064;-77
2023/10/03 05:00:38;;;;;;;21.15;5.93;;;;;;;16.60;51.03;101676.00;5051184;28;20515;-77
2023/10/03 05:03:09;;;;;;;17.98;6.22;;;;;;;16.45;50.70;101637.44;5050679;28;20033;-77
2023/10/03 05:05:35;;;;;;;33.65;6.25;;;;;;;16.65;50.56;101684.56;5050970;28;20112;-78
2023/10/03 05:08:02;;;;;;;20.38;6.63;;;;;;;16.46;50.80;101646.44;5050896;28;20104;-77
2023/10/03 05:10:29;;;;;;;33.55;7.10;;;;;;;16.46;51.22;101635.59;5050836;28;20040;-77
2023/10/03 05:12:54;;;;;;;34.92;7.20;;;;;;;16.70;50.92;101682.28;5050660;28;20025;-77
2023/10/03 05:15:20;;;;;;;17.30;5.32;;;;;;;16.79;50.44;101684.16;5050758;28;20040;-79
2023/10/03 05:17:48;;;;;;;20.05;6.55;;;;;;;16.89;50.21;101687.78;5050564;28;20029;-77
2023/10/03 05:20:17;;;;;;;23.63;6.35;;;;;;;16.95;50.10;101681.78;5050415;28;20094;-76
2023/10/03 05:22:45;;;;;;;27.50;7.32;;;;;;;17.01;49.88;101689.38;5050729;28;20033;-76
2023/10/03 05:25:12;;;;;;;31.67;7.43;;;;;;;17.09;49.68;101696.84;5050643;28;20024;-77
2023/10/03 05:27:42;;;;;;;35.33;7.35;;;;;;;17.12;49.74;101704.72;5050716;28;20029;-77
2023/10/03 05:30:09;;;;;;;43.70;9.30;;;;;;;17.13;49.41;101696.41;5050008;28;20092;-77
2023/10/03 05:32:38;;;;;;;30.40;6.68;;;;;;;17.20;49.52;101703.00;4998570;28;20037;-76
2023/10/03 05:35:06;;;;;;;32.53;6.78;;;;;;;17.22;49.34;101698.28;5032406;28;20032;-76
2023/10/03 05:37:33;;;;;;;20.58;6.07;;;;;;;17.28;49.34;101697.72;5050160;28;20025;-77
2023/10/03 05:39:59;;;;;;;33.17;7.65;;;;;;;17.41;48.94;101711.03;5050400;28;20426;-77
2023/10/03 05:42:26;;;;;;;39.83;7.47;;;;;;;17.49;48.79;101713.06;5050276;28;20108;-78
2023/10/03 05:44:53;;;;;;;81.68;13.93;;;;;;;17.57;48.69;101711.38;5031315;28;20044;-77
2023/10/03 05:47:20;;;;;;;39.60;8.43;;;;;;;17.63;48.67;101707.19;5050329;28;20033;-76
2023/10/03 05:49:45;;;;;;;33.60;8.02;;;;;;;17.56;48.49;101687.00;5032179;28;20555;-77
2023/10/03 05:52:11;;;;;;;24.55;6.70;;;;;;;17.84;48.23;101714.22;5050191;28;20025;-77
2023/10/03 05:54:37;;;;;;;21.38;6.18;;;;;;;17.93;47.89;101715.19;5049936;28;20486;-78
2023/10/03 05:57:03;;;;;;;32.92;7.05;;;;;;;17.95;48.45;101718.63;5049668;28;20031;-78
2023/10/03 05:59:29;;;;;;;16.52;5.38;;;;;;;18.10;47.89;101709.00;4998001;28;20766;-75
2023/10/03 06:01:57;;;;;;;17.85;6.30;;;;;;;18.09;47.64;101717.31;5049823;28;20032;-77
2023/10/03 06:04:23;;;;;;;29.50;6.63;;;;;;;18.14;47.56;101715.84;5049922;28;20025;-77
2023/10/03 06:06:49;;;;;;;35.00;6.85;;;;;;;18.21;47.48;101717.00;5049847;28;20025;-76
2023/10/03 06:09:15;;;;;;;33.05;7.03;;;;;;;18.39;47.64;101720.66;5031974;28;20048;-77
2023/10/03 06:11:41;;;;;;;23.13;6.60;;;;;;;18.53;46.90;101718.50;5049700;28;20112;-76
2023/10/03 06:14:07;;;;;;;40.65;7.63;;;;;;;18.60;46.61;101720.47;5050053;28;20052;-76
2023/10/03 06:16:32;;;;;;;30.25;7.18;;;;;;;18.71;46.39;101722.16;5030857;28;20119;-76
2023/10/03 06:18:58;;;;;;;26.80;7.25;;;;;;;18.86;45.98;101723.38;5049510;28;20029;-77
2023/10/03 06:21:23;;;;;;;41.20;8.07;;;;;;;18.98;45.91;101723.00;5049864;28;20036;-76
2023/10/03 06:23:50;;;;;;;30.98;6.90;;;;;;;18.84;45.68;101689.94;5049670;28;20447;-78
2023/10/03 06:26:20;;;;;;;28.50;7.57;;;;;;;18.93;45.56;101681.69;5049596;28;20060;-76
2023/10/03 06:28:46;;;;;;;18.67;7.03;;;;;;;19.17;44.89;101708.41;5049434;28;20493;-77
2023/10/03 06:31:11;;;;;;;28.65;7.43;;;;;;;19.40;44.91;101728.78;5049439;28;20107;-77
2023/10/03 06:33:37;;;;;;;22.00;7.32;;;;;;;19.50;44.92;101728.72;5030546;28;20461;-77
2023/10/03 06:36:06;;;;;;;31.65;8.35;;;;;;;19.59;44.30;101722.31;5049426;28;20111;-76
2023/10/03 06:38:36;;;;;;;21.92;8.32;;;;;;;19.68;44.44;101731.44;5049214;28;20485;-77
2023/10/03 06:41:07;;;;;;;25.52;9.13;;;;;;;19.62;44.10;101702.03;5048957;28;20025;-78
2023/10/03 06:43:32;;;;;;;34.08;9.35;;;;;;;19.73;43.16;101712.69;5049726;28;20052;-76
2023/10/03 06:45:58;;;;;;;35.33;7.65;;;;;;;19.93;42.69;101725.16;5031611;28;20063;-76
2023/10/03 06:48:24;;;;;;;26.08;8.23;;;;;;;19.69;42.77;101698.53;5049403;28;20032;-76
2023/10/03 06:50:50;;;;;;;35.85;8.73;;;;;;;20.01;42.84;101728.81;5049286;28;20021;-75
2023/10/03 06:53:18;;;;;;;24.73;8.43;;;;;;;20.13;42.38;101726.66;5049388;28;20060;-77
2023/10/03 06:55:44;;;;;;;23.55;8.18;;;;;;;20.21;42.16;101731.34;5049166;28;20123;-77
2023/10/03 06:58:10;;;;;;;41.08;8.20;;;;;;;19.97;42.14;101683.72;5049269;28;20067;-77
2023/10/03 07:00:37;;;;;;;40.47;10.20;;;;;;;20.29;42.13;101737.75;4997522;28;20033;-77
2023/10/03 07:03:03;;;;;;;58.47;12.48;;;;;;;20.37;42.18;101750.59;5049192;28;20112;-77
2023/10/03 07:05:29;;;;;;;47.78;11.40;;;;;;;20.48;42.12;101745.75;5048876;28;20025;-77
2023/10/03 07:07:54;;;;;;;28.67;9.45;;;;;;;20.57;41.91;101755.69;5049094;28;20071;-75
2023/10/03 07:10:21;;;;;;;36.38;10.45;;;;;;;20.68;41.60;101742.75;5001290;28;20040;-78
2023/10/03 07:12:47;;;;;;;49.33;11.57;;;;;;;20.70;41.73;101741.59;5053159;28;20037;-76
2023/10/03 07:15:13;;;;;;;32.00;10.57;;;;;;;20.85;41.52;101739.09;5053084;28;20543;-77
2023/10/03 07:17:38;;;;;;;30.63;10.68;;;;;;;20.85;40.55;101733.63;5052990;28;20033;-76
2023/10/03 07:20:07;;;;;;;31.15;8.45;;;;;;;21.02;40.66;101738.97;5052960;28;20471;-76
2023/10/03 07:22:33;;;;;;;29.85;8.57;;;;;;;21.22;40.31;101745.06;5053043;28;20079;-76
2023/10/03 07:24:59;;;;;;;21.55;7.80;;;;;;;21.26;39.37;101745.56;5052971;28;20028;-77
2023/10/03 07:27:24;;;;;;;30.08;10.55;;;;;;;21.34;38.83;101740.13;5052705;28;20035;-77
2023/10/03 07:29:49;;;;;;;29.38;8.85;;;;;;;21.30;38.97;101730.53;5052897;28;20112;-77
2023/10/03 07:32:15;;;;;;;31.17;9.23;;;;;;;21.41;38.47;101736.53;5051834;28;20096;-77
2023/10/03 07:34:43;;;;;;;30.10;8.35;;;;;;;21.46;37.83;101744.28;5052939;28;20031;-76
2023/10/03 07:37:09;;;;;;;32.70;9.18;;;;;;;21.45;37.46;101737.06;5052724;28;20378;-77
2023/10/03 07:39:35;;;;;;;21.25;6.57;;;;;;;21.37;37.21;101723.38;5052446;28;20039;-78
2023/10/03 07:42:01;;;;;;;24.48;8.75;;;;;;;21.59;37.29;101745.47;5052552;28;20025;-76
2023/10/03 07:44:27;;;;;;;20.92;7.85;;;;;;;21.56;36.99;101723.91;5033494;28;20057;-77
2023/10/03 07:46:53;;;;;;;32.30;8.90;;;;;;;21.66;37.26;101740.19;5052213;28;20029;-78
2023/10/03 07:49:18;;;;;;;21.50;7.13;;;;;;;21.77;37.46;101742.59;5052530;28;20030;-77
2023/10/03 07:51:44;;;;;;;26.80;8.55;;;;;;;21.83;37.30;101736.44;5052251;28;20078;-77
2023/10/03 07:54:09;;;;;;;31.45;8.50;;;;;;;21.95;37.41;101739.72;5052581;28;20436;-77
2023/10/03 07:56:37;;;;;;;19.27;6.40;;;;;;;21.87;36.71;101739.66;5052220;28;20555;-77
2023/10/03 07:59:04;;;;;;;30.65;16.83;;;;;;;21.84;36.57;101731.78;5052588;28;20040;-76
2023/10/03 08:01:30;;;;;;;26.88;7.68;;;;;;;21.88;36.30;101738.66;5052069;28;20447;-77
2023/10/03 08:03:57;;;;;;;20.88;8.23;;;;;;;21.90;36.03;101734.75;5052336;28;20150;-78
2023/10/03 08:06:24;;;;;;;36.70;9.05;;;;;;;21.85;35.89;101733.50;5051923;28;20406;-77
2023/10/03 08:08:59;;;;;;;24.85;9.10;;;;;;;21.94;35.84;101741.59;5051749;28;20063;-77
2023/10/03 08:11:31;;;;;;;31.95;9.15;;;;;;;21.92;35.70;101723.63;5052118;28;20401;-78
2023/10/03 08:14:00;;;;;;;;;;;;;;;21.90;35.82;101728.41;5052773;28;20036;-77
2023/10/03 08:16:27;;;;;;;29.35;8.18;;;;;;;21.88;36.03;101727.69;5051839;28;19908;-78
2023/10/03 08:18:58;;;;;;;39.50;8.93;;;;;;;22.10;36.04;101738.00;5051326;28;20465;-78
2023/10/03 08:21:28;;;;;;;23.55;6.72;;;;;;;22.33;35.99;101732.63;4998587;28;20033;-78
2023/10/03 08:23:55;;;;;;;20.73;7.40;;;;;;;22.50;35.35;101734.34;5051248;28;20032;-77
2023/10/03 08:26:21;;;;;;;23.95;7.70;;;;;;;22.63;35.15;101727.25;5051509;28;20029;-77
2023/10/03 08:28:59;;;;;;;28.23;8.75;;;;;;;22.63;35.01;101727.25;5051512;28;20056;-77
2023/10/03 08:31:28;;;;;;;25.98;7.53;;;;;;;22.70;34.79;101731.03;5051481;28;20029;-78
2023/10/03 08:33:57;;;;;;;33.95;7.30;;;;;;;22.49;34.65;101678.63;5051365;28;20094;-77
2023/10/03 08:36:23;;;;;;;41.22;9.32;;;;;;;22.81;35.34;101723.47;5051643;28;20040;-76
2023/10/03 08:38:49;;;;;;;31.83;7.78;;;;;;;22.81;35.28;101709.75;5051343;28;20029;-77
2023/10/03 08:41:34;;;;;;;28.45;8.20;;;;;;;22.84;34.94;101714.88;5051712;28;20144;-78
2023/10/03 08:44:00;;;;;;;19.60;8.20;;;;;;;22.81;34.75;101707.00;5051450;28;20161;-77
2023/10/03 08:46:29;;;;;;;20.58;7.60;;;;;;;22.77;35.01;101710.09;5050164;28;20555;-76
2023/10/03 08:49:00;;;;;;;24.23;8.13;;;;;;;22.69;35.13;101695.53;5051069;28;20067;-77
2023/10/03 08:51:32;;;;;;;19.40;8.13;;;;;;;23.01;34.37;101705.53;5051252;28;20481;-78
2023/10/03 08:54:09;;;;;;;35.28;9.30;;;;;;;23.06;33.89;101708.56;5051361;28;20413;-77
2023/10/03 08:56:35;;;;;;;21.98;8.45;;;;;;;23.12;33.86;101718.81;5003110;28;20040;-78
2023/10/03 08:59:03;;;;;;;20.02;8.70;;;;;;;23.12;33.97;101696.88;4999072;28;20041;-78
2023/10/03 09:01:33;;;;;;;20.58;8.40;;;;;;;23.07;33.82;101671.88;5033403;28;20017;-77
2023/10/03 09:04:04;;;;;;;24.92;8.90;;;;;;;23.31;33.54;101707.41;5050882;28;20025;-77
2023/10/03 09:06:37;;;;;;;31.48;10.75;;;;;;;23.48;33.91;101722.78;5049649;28;20493;-77
2023/10/03 09:09:08;;;;;;;;;;;;;;;23.57;33.24;101707.94;5050953;28;20128;-77
2023/10/03 09:11:37;;;;;;;34.63;9.77;;;;;;;23.45;33.52;101703.91;5051062;28;20021;-77
2023/10/03 09:14:03;;;;;;;27.30;7.90;;;;;;;23.26;33.76;101698.84;5050715;28;20154;-78
2023/10/03 09:16:28;;;;;;;24.40;8.70;;;;;;;23.19;33.53;101676.75;5050777;28;20024;-78
2023/10/03 09:18:57;;;;;;;27.27;8.68;;;;;;;23.52;33.65;101710.38;5031774;28;20040;-77
2023/10/03 09:21:27;;;;;;;23.50;8.73;;;;;;;23.63;34.78;101701.72;5050493;28;20040;-76
2023/10/03 09:24:12;;;;;;;24.63;8.75;;;;;;;23.46;35.25;101691.00;5050644;28;20759;-79
2023/10/03 09:26:47;;;;;;;22.08;8.07;;;;;;;23.43;35.99;101705.97;5050502;28;20033;-77
2023/10/03 09:29:29;;;;;;;37.33;8.73;;;;;;;23.15;36.92;101700.13;5050334;28;20029;-76
2023/10/03 09:31:57;;;;;;;27.52;8.35;;;;;;;23.16;36.94;101687.25;5050088;28;20543;-76
2023/10/03 09:34:30;;;;;;;25.63;9.65;;;;;;;23.31;36.66;101707.41;5050153;28;20446;-77
2023/10/03 09:36:58;;;;;;;33.72;8.90;;;;;;;23.20;36.48;101688.59;5050306;28;20064;-76
2023/10/03 09:39:26;;;;;;;28.20;9.05;;;;;;;23.16;36.87;101699.09;5031576;28;20048;-77
2023/10/03 09:41:56;;;;;;;36.78;9.85;;;;;;;23.28;37.33;101691.28;5033260;28;20515;-77
2023/10/03 09:44:29;;;;;;;21.13;9.45;;;;;;;23.34;36.25;101685.06;5050461;28;20525;-77
2023/10/03 09:47:03;;;;;;;35.33;9.57;;;;;;;23.46;35.84;101697.38;5050449;28;20024;-77
2023/10/03 09:49:38;;;;;;;43.65;22.38;;;;;;;23.22;36.01;101681.03;5061520;28;20021;-77
2023/10/03 09:52:25;;;;;;;24.58;9.15;;;;;;;23.25;36.46;101686.16;5075633;28;20071;-77
2023/10/03 09:54:54;;;;;;;34.50;9.00;;;;;;;23.28;36.57;101694.03;5046366;28;20048;-77
2023/10/03 09:57:24;;;;;;;23.30;8.38;;;;;;;23.39;36.55;101681.78;5076340;28;20029;-78
2023/10/03 09:59:50;;;;;;;29.05;9.48;;;;;;;23.38;36.39;101677.31;5068313;28;20124;-77
2023/10/03 10:02:30;;;;;;;40.42;9.20;;;;;;;23.37;36.05;101676.47;5053189;28;20097;-77
2023/10/03 10:04:59;;;;;;;44.95;9.23;;;;;;;23.33;35.96;101666.91;5051905;28;20032;-77
2023/10/03 10:07:43;;;;;;;29.20;8.10;;;;;;;23.31;35.82;101664.31;5051741;28;20025;-78
2023/10/03 10:10:14;;;;;;;23.58;9.60;;;;;;;23.52;35.60;101674.66;5019467;28;20037;-77
2023/10/03 10:16:11;;;;;;;20.63;7.68;;;;;;;23.47;35.52;101668.03;4949409;29;20579;-79
2023/10/03 10:18:43;;;;;;;23.75;9.57;;;;;;;23.39;35.66;101638.75;4949391;29;20088;-76
2023/10/03 10:21:30;;;;;;;22.90;8.45;;;;;;;23.56;35.74;101667.78;4949287;29;20039;-78
2023/10/03 10:24:20;;;;;;;26.85;8.45;;;;;;;23.55;35.95;101663.31;4949355;29;20035;-76
2023/10/03 10:26:52;;;;;;;30.25;8.95;;;;;;;23.41;35.86;101611.09;4949078;29;20043;-77
2023/10/03 10:29:19;;;;;;;23.77;7.82;;;;;;;23.74;35.58;101649.06;4949275;29;20023;-78
2023/10/03 10:31:57;;;;;;;21.60;9.65;;;;;;;23.67;35.72;101636.25;4949034;29;20125;-77
2023/10/03 10:34:46;;;;;;;38.42;10.25;;;;;;;23.69;35.50;101654.28;4949049;29;20043;-76
2023/10/03 10:37:18;;;;;;;23.40;8.50;;;;;;;23.67;36.08;101658.22;4948703;29;20050;-77
2023/10/03 10:40:12;;;;;;;35.28;8.23;;;;;;;23.71;35.87;101649.44;4949036;29;20118;-77
2023/10/03 10:42:56;;;;;;;20.35;9.05;;;;;;;23.68;36.67;101643.47;4948201;29;20542;-77
2023/10/03 10:45:22;;;;;;;31.23;10.93;;;;;;;23.79;36.40;101630.13;4948758;29;20041;-77
2023/10/03 10:47:50;;;;;;;23.75;8.40;;;;;;;24.04;35.59;101651.84;4948980;29;20114;-77
2023/10/03 10:50:17;;;;;;;29.55;8.85;;;;;;;23.92;35.52;101658.84;4948860;29;20037;-76
2023/10/03 10:52:53;;;;;;;64.68;30.70;;;;;;;24.16;35.27;101644.88;4996796;28;20487;-77
2023/10/03 10:55:21;;;;;;;33.20;8.95;;;;;;;23.92;34.78;101613.00;5048829;28;20021;-77
2023/10/03 10:57:47;;;;;;;37.83;11.00;;;;;;;24.16;34.74;101642.13;5049348;28;20025;-78
2023/10/03 11:00:17;;;;;;;28.40;8.98;;;;;;;24.23;34.97;101643.09;5049329;28;20036;-76
2023/10/03 11:02:43;;;;;;;22.27;9.23;;;;;;;24.14;35.13;101645.09;5049216;28;20041;-77
2023/10/03 11:05:10;;;;;;;24.23;10.02;;;;;;;24.19;34.93;101634.38;5049035;28;20024;-78
2023/10/03 11:07:37;;;;;;;26.00;8.73;;;;;;;24.35;34.91;101636.94;5049157;28;20033;-78
2023/10/03 11:10:12;;;;;;;37.03;11.32;;;;;;;24.39;35.10;101642.91;4997263;28;20669;-77
2023/10/03 11:12:37;;;;;;;37.08;9.13;;;;;;;24.37;35.27;101631.28;5048891;28;20037;-77
2023/10/03 11:15:10;;;;;;;24.70;9.45;;;;;;;24.11;35.35;101634.47;5048850;28;20106;-76
2023/10/03 11:17:36;;;;;;;43.63;9.63;;;;;;;24.05;36.12;101634.34;5049227;28;20041;-77
2023/10/03 11:20:08;;;;;;;33.10;9.70;;;;;;;24.12;36.25;101630.69;5048819;28;20120;-77
2023/10/03 11:22:40;;;;;;;30.65;9.95;;;;;;;24.05;35.63;101617.84;5030873;28;20033;-77
2023/10/03 11:25:09;;;;;;;24.45;9.95;;;;;;;23.73;36.59;101553.94;5049097;28;20100;-77
2023/10/03 11:27:35;;;;;;;23.98;8.57;;;;;;;23.97;36.71;101639.94;5048568;28;20486;-77